createdAt,value
2019-06-07T00:01:57.837Z,11.23
2019-06-07T00:04:27.956Z,10.87
2019-06-07T00:07:12.605Z,10.97
2019-06-07T00:09:43.824Z,13.23
2019-06-07T00:12:35.232Z,12.00
2019-06-07T00:15:10.566Z,12.90
2019-06-07T00:17:59.428Z,11.33
2019-06-07T00:20:29.590Z,11.93
2019-06-07T00:23:22.922Z,11.80
2019-06-07T00:25:53.297Z,11.57
2019-06-07T00:28:36.946Z,10.80
2019-06-07T00:31:02.217Z,10.63
2019-06-07T00:33:32.302Z,11.13
2019-06-07T00:36:09.714Z,11.07
2019-06-07T00:38:37.231Z,10.73
2019-06-07T00:41:07.370Z,11.40
2019-06-07T00:43:37.457Z,11.33
2019-06-07T00:46:07.561Z,10.23
2019-06-07T00:48:37.673Z,10.43
2019-06-07T00:51:07.808Z,9.17
2019-06-07T00:53:37.932Z,10.67
2019-06-07T00:56:07.993Z,9.27
2019-06-07T00:58:38.120Z,10.23
2019-06-07T01:01:17.170Z,10.57
2019-06-07T01:03:45.433Z,11.10
2019-06-07T01:06:39.493Z,10.07
2019-06-07T01:09:09.694Z,10.83
2019-06-07T01:12:02.060Z,10.03
2019-06-07T01:14:32.240Z,11.30
2019-06-07T01:17:40.958Z,10.90
2019-06-07T01:20:00.017Z,10.57
2019-06-07T01:22:48.477Z,10.47
2019-06-07T01:25:22.180Z,10.57
2019-06-07T01:28:04.660Z,11.30
2019-06-07T01:30:34.682Z,10.77
2019-06-07T01:33:04.766Z,10.43
2019-06-07T01:35:34.858Z,11.57
2019-06-07T01:38:05.030Z,11.23
2019-06-07T01:40:35.163Z,13.10
2019-06-07T01:43:05.256Z,11.50
2019-06-07T01:45:35.394Z,12.33
2019-06-07T01:48:05.642Z,12.27
2019-06-07T01:50:35.772Z,12.27
2019-06-07T01:53:05.891Z,12.40
2019-06-07T01:55:36.010Z,12.87
2019-06-07T01:58:06.378Z,12.00
2019-06-07T02:00:37.430Z,11.57
2019-06-07T02:03:07.630Z,10.20
2019-06-07T02:05:59.642Z,10.73
2019-06-07T02:08:34.028Z,10.10
2019-06-07T02:11:20.922Z,9.37
2019-06-07T02:13:52.033Z,11.63
2019-06-07T02:16:24.714Z,11.57
2019-06-07T02:19:01.718Z,12.03
2019-06-07T02:21:28.056Z,10.50
2019-06-07T02:23:57.560Z,11.83
2019-06-07T02:26:30.018Z,10.80
2019-06-07T02:28:59.608Z,11.33
2019-06-07T02:31:38.285Z,11.37
2019-06-07T02:34:02.462Z,11.50
2019-06-07T02:36:39.135Z,10.50
2019-06-07T02:39:05.792Z,11.30
2019-06-07T02:41:39.692Z,10.47
2019-06-07T02:44:07.850Z,11.87
2019-06-07T02:46:46.606Z,9.67
2019-06-07T02:49:12.758Z,10.90
2019-06-07T02:51:42.834Z,11.07
2019-06-07T02:54:36.914Z,12.13
2019-06-07T02:57:03.180Z,10.03
2019-06-07T02:59:56.809Z,11.47
2019-06-07T03:02:04.930Z,10.43
2019-06-07T03:04:41.778Z,10.77
2019-06-07T03:07:07.149Z,10.90
2019-06-07T03:09:39.972Z,10.90
2019-06-07T03:12:11.885Z,11.20
2019-06-07T03:14:42.649Z,11.83
2019-06-07T03:17:40.529Z,12.23
2019-06-07T03:20:11.923Z,11.60
2019-06-07T03:22:43.286Z,13.27
2019-06-07T03:25:13.518Z,12.00
2019-06-07T03:27:49.445Z,12.60
2019-06-07T03:30:39.155Z,11.70
2019-06-07T03:32:48.625Z,11.93
2019-06-07T03:35:18.852Z,11.83
2019-06-07T03:37:48.968Z,11.27
2019-06-07T03:40:19.037Z,11.23
2019-06-07T03:43:12.570Z,11.50
2019-06-07T03:45:42.637Z,11.10
2019-06-07T03:48:43.322Z,11.33
2019-06-07T03:51:24.861Z,11.47
2019-06-07T03:53:56.536Z,11.07
2019-06-07T03:56:28.303Z,11.50
2019-06-07T03:59:03.036Z,10.23
2019-06-07T04:01:34.855Z,9.73
2019-06-07T04:04:04.847Z,9.23
2019-06-07T04:06:36.859Z,9.03
2019-06-07T04:09:07.648Z,7.30
2019-06-07T04:11:39.474Z,7.80
2019-06-07T04:14:09.451Z,8.73
2019-06-07T04:16:44.110Z,8.10
2019-06-07T04:19:11.256Z,8.10
2019-06-07T04:21:42.948Z,9.23
2019-06-07T04:24:13.338Z,6.40
2019-06-07T04:26:46.576Z,7.03
2019-06-07T04:29:35.666Z,7.47
2019-06-07T04:31:49.151Z,6.80
2019-06-07T04:34:19.238Z,5.83
2019-06-07T04:37:10.886Z,5.40
2019-06-07T04:39:44.975Z,6.57
2019-06-07T04:42:44.508Z,5.77
2019-06-07T04:45:32.559Z,5.90
2019-06-07T04:47:59.682Z,5.97
2019-06-07T04:50:34.311Z,5.40
2019-06-07T04:53:26.937Z,5.30
2019-06-07T04:55:57.561Z,5.27
2019-06-07T04:58:49.800Z,5.20
2019-06-07T05:01:27.371Z,4.97
2019-06-07T05:04:04.953Z,5.40
2019-06-07T05:06:37.657Z,5.00
2019-06-07T05:09:07.496Z,5.40
2019-06-07T05:11:39.418Z,5.07
2019-06-07T05:14:09.315Z,4.90
2019-06-07T05:16:43.309Z,5.13
2019-06-07T05:19:11.171Z,4.97
2019-06-07T05:21:59.840Z,4.87
2019-06-07T05:24:12.913Z,4.57
2019-06-07T05:26:43.047Z,4.90
2019-06-07T05:29:13.157Z,4.60
2019-06-07T05:31:45.321Z,4.53
2019-06-07T05:34:15.448Z,4.67
2019-06-07T05:36:45.686Z,5.10
2019-06-07T05:39:15.791Z,4.10
2019-06-07T05:41:59.113Z,4.23
2019-06-07T05:44:29.274Z,4.30
2019-06-07T05:46:59.356Z,4.40
2019-06-07T05:49:29.502Z,4.20
2019-06-07T05:51:59.605Z,4.60
2019-06-07T05:54:35.082Z,4.47
2019-06-07T05:57:03.905Z,4.50
2019-06-07T05:59:37.831Z,4.40
2019-06-07T06:02:21.837Z,3.70
2019-06-07T06:04:40.270Z,4.73
2019-06-07T06:07:11.143Z,4.60
2019-06-07T06:09:43.053Z,4.43
2019-06-07T06:12:13.081Z,4.67
2019-06-07T06:14:54.485Z,4.30
2019-06-07T06:17:24.586Z,4.37
2019-06-07T06:20:04.529Z,4.50
2019-06-07T06:22:34.596Z,4.13
2019-06-07T06:30:11.261Z,4.47
2019-06-07T06:32:49.351Z,4.53
2019-06-07T06:35:13.455Z,4.20
2019-06-07T06:37:47.130Z,4.23
2019-06-07T06:40:16.940Z,4.53
2019-06-07T06:42:50.053Z,4.50
2019-06-07T06:45:22.744Z,4.80
2019-06-07T06:47:52.895Z,4.53
2019-06-07T06:50:23.490Z,4.17
2019-06-07T06:53:00.129Z,4.10
2019-06-07T06:55:30.300Z,4.80
2019-06-07T06:58:04.362Z,4.20
2019-06-07T07:01:06.518Z,4.27
2019-06-07T07:04:07.283Z,4.70
2019-06-07T07:06:26.382Z,4.43
2019-06-07T07:09:12.812Z,3.93
2019-06-07T07:11:56.281Z,4.20
2019-06-07T07:14:23.833Z,4.20
2019-06-07T07:16:56.528Z,4.40
2019-06-07T07:19:26.084Z,4.50
2019-06-07T07:21:56.291Z,4.20
2019-06-07T07:24:26.519Z,4.57
2019-06-07T07:26:58.545Z,4.70
2019-06-07T07:29:28.885Z,4.40
2019-06-07T07:31:59.054Z,4.57
2019-06-07T07:34:36.251Z,4.13
2019-06-07T07:37:01.141Z,4.27
2019-06-07T07:39:31.365Z,4.93
2019-06-07T07:42:20.283Z,4.37
2019-06-07T07:44:33.400Z,4.40
2019-06-07T07:47:09.326Z,5.20
2019-06-07T07:49:39.598Z,4.70
2019-06-07T07:52:12.894Z,4.50
2019-06-07T07:54:44.282Z,4.57
2019-06-07T07:57:14.492Z,4.40
2019-06-07T08:00:02.184Z,4.77
2019-06-07T08:02:16.318Z,4.77
2019-06-07T08:05:17.688Z,4.50
2019-06-07T08:07:18.357Z,4.73
2019-06-07T08:10:07.697Z,4.73
2019-06-07T08:13:00.302Z,4.50
2019-06-07T08:15:09.686Z,4.17
2019-06-07T08:17:39.917Z,4.60
2019-06-07T08:20:10.806Z,5.00
2019-06-07T08:22:40.971Z,4.33
2019-06-07T08:25:11.871Z,4.97
2019-06-07T08:27:42.019Z,4.40
2019-06-07T08:33:01.091Z,5.10
2019-06-07T08:38:33.769Z,4.70
2019-06-07T08:41:12.921Z,4.87
2019-06-07T08:43:41.069Z,4.80
2019-06-07T08:46:33.604Z,4.90
2019-06-07T08:49:04.696Z,5.40
2019-06-07T08:51:43.069Z,5.00
2019-06-07T08:54:22.287Z,5.23
2019-06-07T08:56:45.325Z,4.93
2019-06-07T08:59:15.567Z,5.23
2019-06-07T09:01:45.691Z,5.00
2019-06-07T09:04:15.934Z,6.40
2019-06-07T09:07:08.859Z,12.97
2019-06-07T09:09:17.820Z,9.40
2019-06-07T09:11:48.207Z,9.20
2019-06-07T09:14:19.348Z,7.60
2019-06-07T09:16:49.510Z,14.77
2019-06-07T09:19:19.650Z,6.20
2019-06-07T09:21:49.886Z,8.83
2019-06-07T09:24:29.363Z,5.30
2019-06-07T09:27:02.391Z,5.13
2019-06-07T09:29:53.956Z,4.83
2019-06-07T09:32:24.375Z,4.43
2019-06-07T09:35:17.530Z,4.63
2019-06-07T09:38:23.343Z,4.57
2019-06-07T09:40:48.093Z,5.13
2019-06-07T09:43:59.976Z,4.83
2019-06-07T09:46:09.657Z,4.83
2019-06-07T09:51:19.031Z,4.80
2019-06-07T09:53:40.076Z,4.87
2019-06-07T09:56:12.223Z,4.50
2019-06-07T09:58:52.535Z,4.47
2019-06-07T10:01:14.185Z,5.03
2019-06-07T10:03:44.445Z,4.73
2019-06-07T10:06:15.989Z,4.53
2019-06-07T10:10:08.289Z,4.80
2019-06-07T10:11:18.106Z,4.83
2019-06-07T10:13:48.308Z,4.80
2019-06-07T10:16:18.493Z,4.57
2019-06-07T10:18:48.689Z,4.93
2019-06-07T10:21:18.910Z,4.53
2019-06-07T10:24:03.560Z,4.50
2019-06-07T10:26:33.774Z,4.13
2019-06-07T10:29:05.494Z,4.50
2019-06-07T10:31:35.745Z,4.57
2019-06-07T10:34:06.753Z,5.00
2019-06-07T10:36:37.095Z,4.67
2019-06-07T10:39:09.093Z,4.87
2019-06-07T10:41:39.396Z,5.03
2019-06-07T10:44:09.615Z,4.30
2019-06-07T10:46:39.886Z,4.93
2019-06-07T10:49:10.221Z,4.83
2019-06-07T10:51:40.378Z,4.90
2019-06-07T10:54:24.721Z,4.50
2019-06-07T10:56:42.657Z,5.00
2019-06-07T10:59:13.717Z,4.50
2019-06-07T11:01:55.616Z,4.43
2019-06-07T11:04:25.751Z,5.10
2019-06-07T11:07:26.937Z,5.00
2019-06-07T11:10:07.499Z,4.40
2019-06-07T11:12:43.761Z,4.53
2019-06-07T11:15:15.026Z,4.97
2019-06-07T11:18:00.920Z,4.30
2019-06-07T11:20:30.726Z,4.57
2019-06-07T11:23:01.409Z,4.30
2019-06-07T11:25:31.768Z,4.13
2019-06-07T11:28:02.025Z,4.37
2019-06-07T11:30:32.269Z,4.40
2019-06-07T11:33:02.526Z,4.30
2019-06-07T11:35:32.765Z,4.17
2019-06-07T11:38:02.982Z,4.20
2019-06-07T11:40:35.849Z,4.47
2019-06-07T11:43:05.095Z,4.23
2019-06-07T11:45:35.305Z,4.17
2019-06-07T11:48:05.508Z,3.90
2019-06-07T11:50:38.488Z,4.83
2019-06-07T11:53:08.739Z,4.30
2019-06-07T11:56:01.456Z,4.77
2019-06-07T11:58:31.698Z,5.07
2019-06-07T12:01:20.525Z,4.70
2019-06-07T12:03:50.973Z,4.17
2019-06-07T12:06:21.200Z,4.17
2019-06-07T12:08:51.525Z,4.57
2019-06-07T12:11:21.701Z,4.33
2019-06-07T12:13:51.816Z,4.33
2019-06-07T12:16:21.926Z,4.60
2019-06-07T12:18:52.159Z,4.50
2019-06-07T12:21:22.196Z,4.50
2019-06-07T12:23:52.385Z,4.40
2019-06-07T12:26:23.731Z,4.33
2019-06-07T12:28:53.782Z,4.37
2019-06-07T12:31:23.846Z,4.53
2019-06-07T12:33:54.002Z,4.20
2019-06-07T12:36:24.172Z,4.20
2019-06-07T12:39:17.978Z,5.00
2019-06-07T12:41:48.317Z,4.70
2019-06-07T12:44:40.020Z,4.27
2019-06-07T12:47:10.160Z,4.70
2019-06-07T12:50:03.361Z,5.05
2019-06-07T12:52:33.567Z,5.00
2019-06-07T12:55:27.008Z,4.70
2019-06-07T12:57:57.306Z,5.00
2019-06-07T13:00:42.456Z,4.70
2019-06-07T13:03:02.013Z,4.37
2019-06-07T13:05:32.181Z,4.70
2019-06-07T13:08:02.268Z,4.77
2019-06-07T13:10:32.418Z,4.60
2019-06-07T13:13:02.473Z,4.40
2019-06-07T13:15:32.686Z,4.67
2019-06-07T13:18:02.865Z,4.57
2019-06-07T13:20:33.065Z,4.93
2019-06-07T13:23:03.121Z,5.07
2019-06-07T13:25:45.753Z,4.53
2019-06-07T13:28:05.273Z,4.77
2019-06-07T13:30:36.475Z,4.97
2019-06-07T13:33:31.989Z,4.83
2019-06-07T13:35:58.256Z,4.80
2019-06-07T13:38:48.886Z,5.37
2019-06-07T13:41:32.610Z,5.40
2019-06-07T13:44:13.988Z,5.47
2019-06-07T13:46:44.049Z,5.33
2019-06-07T13:49:35.667Z,5.73
2019-06-07T13:52:06.037Z,5.33
2019-06-07T13:54:51.333Z,5.60
2019-06-07T13:57:22.210Z,5.43
2019-06-07T13:59:52.523Z,5.00
2019-06-07T14:02:23.606Z,5.03
2019-06-07T14:04:54.301Z,4.30
2019-06-07T14:07:26.373Z,4.80
2019-06-07T14:09:56.113Z,3.90
2019-06-07T14:12:26.361Z,3.30
2019-06-07T14:14:57.706Z,3.50
2019-06-07T14:17:28.353Z,3.50
2019-06-07T14:19:59.872Z,4.27
2019-06-07T14:22:31.969Z,4.07
2019-06-07T14:25:02.151Z,7.67
2019-06-07T14:27:32.210Z,6.87
2019-06-07T14:30:02.297Z,5.90
2019-06-07T14:32:56.312Z,4.90
2019-06-07T14:35:26.761Z,5.30
2019-06-07T14:38:21.086Z,5.40
2019-06-07T14:40:51.186Z,5.20
2019-06-07T14:43:41.315Z,5.53
2019-06-07T14:46:11.645Z,6.30
2019-06-07T14:49:05.186Z,5.87
2019-06-07T14:51:35.373Z,5.17
2019-06-07T14:54:32.239Z,4.70
2019-06-07T14:57:03.095Z,5.10
2019-06-07T14:59:54.062Z,5.90
2019-06-07T15:02:24.128Z,6.40
2019-06-07T15:05:17.150Z,5.83
2019-06-07T15:07:47.240Z,5.67
2019-06-07T15:10:31.852Z,5.60
2019-06-07T15:13:00.668Z,6.10
2019-06-07T15:15:30.894Z,6.47
2019-06-07T15:18:01.301Z,6.53
2019-06-07T15:20:32.203Z,6.83
2019-06-07T15:23:02.611Z,6.23
2019-06-07T15:25:33.262Z,6.07
2019-06-07T15:28:03.360Z,5.70
2019-06-07T15:30:33.716Z,5.50
2019-06-07T15:33:03.801Z,4.63
2019-06-07T15:35:36.024Z,5.60
2019-06-07T15:38:05.959Z,3.90
2019-06-07T15:40:37.387Z,3.70
2019-06-07T15:43:07.542Z,3.60
2019-06-07T15:45:37.864Z,3.90
2019-06-07T15:48:07.981Z,4.17
2019-06-07T15:50:38.354Z,3.77
2019-06-07T15:53:08.442Z,4.10
2019-06-07T15:55:43.807Z,3.73
2019-06-07T15:58:10.384Z,4.73
2019-06-07T16:00:41.121Z,4.20
2019-06-07T16:03:12.168Z,4.17
2019-06-07T16:05:43.232Z,4.80
2019-06-07T16:08:14.044Z,4.60
2019-06-07T16:10:44.237Z,4.20
2019-06-07T16:13:14.401Z,4.57
2019-06-07T16:15:44.723Z,5.10
2019-06-07T16:18:14.823Z,4.97
2019-06-07T16:21:03.005Z,5.30
2019-06-07T16:23:33.685Z,5.30
2019-06-07T16:29:01.959Z,4.83
2019-06-07T16:31:51.330Z,4.67
2019-06-07T16:34:21.597Z,4.50
2019-06-07T16:37:05.928Z,4.00
2019-06-07T16:39:34.097Z,3.87
2019-06-07T16:42:04.198Z,3.67
2019-06-07T16:44:34.286Z,3.23
2019-06-07T16:47:04.397Z,3.63
2019-06-07T16:49:34.504Z,3.80
2019-06-07T16:52:04.572Z,3.40
2019-06-07T16:54:35.628Z,4.10
2019-06-07T16:57:06.081Z,3.70
2019-06-07T16:59:36.805Z,4.27
2019-06-07T17:02:07.160Z,4.70
2019-06-07T17:04:37.446Z,4.47
2019-06-07T17:07:07.732Z,6.30
2019-06-07T17:09:42.117Z,6.20
2019-06-07T17:12:12.549Z,5.90
2019-06-07T17:15:03.048Z,5.23
2019-06-07T17:17:33.180Z,5.57
2019-06-07T17:20:03.272Z,5.63
2019-06-07T17:22:33.352Z,5.47
2019-06-07T17:25:03.442Z,6.43
2019-06-07T17:27:33.532Z,5.90
2019-06-07T17:30:03.607Z,6.50
2019-06-07T17:32:47.569Z,5.70
2019-06-07T17:35:05.732Z,6.70
2019-06-07T17:37:35.772Z,7.43
2019-06-07T17:40:06.234Z,6.10
2019-06-07T17:42:40.600Z,6.40
2019-06-07T17:45:12.164Z,6.07
2019-06-07T17:47:43.560Z,7.23
2019-06-07T17:50:14.299Z,6.80
2019-06-07T17:53:06.257Z,6.30
2019-06-07T17:55:36.604Z,7.60
2019-06-07T17:58:24.818Z,7.77
2019-06-07T18:00:55.176Z,6.13
2019-06-07T18:03:32.612Z,6.67
2019-06-07T18:06:00.775Z,7.47
2019-06-07T18:08:30.880Z,7.17
2019-06-07T18:11:00.973Z,7.50
2019-06-07T18:13:31.045Z,7.37
2019-06-07T18:16:01.107Z,7.20
2019-06-07T18:18:31.189Z,6.70
2019-06-07T18:21:01.243Z,7.13
2019-06-07T18:23:31.407Z,7.87
2019-06-07T18:26:01.522Z,7.93
2019-06-07T18:28:31.596Z,8.57
2019-06-07T18:31:01.662Z,7.30
2019-06-07T18:33:31.757Z,7.50
2019-06-07T18:36:16.602Z,7.33
2019-06-07T18:38:46.927Z,7.57
2019-06-07T18:41:48.987Z,8.60
2019-06-07T18:44:21.922Z,7.73
2019-06-07T18:47:09.930Z,7.90
2019-06-07T18:49:40.105Z,9.13
2019-06-07T18:52:28.334Z,10.00
2019-06-07T18:54:59.695Z,10.97
2019-06-07T18:57:50.088Z,9.00
2019-06-07T19:00:21.653Z,9.10
2019-06-07T19:03:06.969Z,8.90
2019-06-07T19:05:37.129Z,9.80
2019-06-07T19:08:07.210Z,10.10
2019-06-07T19:10:37.269Z,12.67
2019-06-07T19:13:07.413Z,11.30
2019-06-07T19:15:37.539Z,12.83
2019-06-07T19:18:07.614Z,12.63
2019-06-07T19:20:39.248Z,11.97
2019-06-07T19:23:09.345Z,10.40
2019-06-07T19:25:39.425Z,13.77
2019-06-07T19:28:09.552Z,11.93
2019-06-07T19:30:39.614Z,12.50
2019-06-07T19:33:09.744Z,13.20
2019-06-07T19:35:39.792Z,12.80
2019-06-07T19:38:09.888Z,11.87
2019-06-07T19:41:18.264Z,12.80
2019-06-07T19:43:34.999Z,14.27
2019-06-07T19:46:24.582Z,12.87
2019-06-07T19:48:54.682Z,12.77
2019-06-07T19:51:38.531Z,15.07
2019-06-07T19:54:08.720Z,16.07
2019-06-07T19:56:38.821Z,16.60
2019-06-07T19:59:10.273Z,15.20
2019-06-07T20:01:40.369Z,14.77
2019-06-07T20:04:10.468Z,15.67
2019-06-07T20:06:40.529Z,16.40
2019-06-07T20:09:10.614Z,16.03
2019-06-07T20:11:40.736Z,17.00
2019-06-07T20:14:10.823Z,15.87
2019-06-07T20:16:40.880Z,15.87
2019-06-07T20:19:10.980Z,18.73
2019-06-07T20:21:41.079Z,16.53
2019-06-07T20:24:26.949Z,18.33
2019-06-07T20:26:52.173Z,17.80
2019-06-07T20:29:37.137Z,17.37
2019-06-07T20:32:08.822Z,18.77
2019-06-07T20:35:06.132Z,19.17
2019-06-07T20:37:36.353Z,18.63
2019-06-07T20:40:28.184Z,18.07
2019-06-07T20:42:59.326Z,17.43
2019-06-07T20:45:49.707Z,19.20
2019-06-07T20:48:19.795Z,19.70
2019-06-07T20:50:59.630Z,17.47
2019-06-07T20:53:30.280Z,19.30
2019-06-07T20:56:00.537Z,18.60
2019-06-07T20:58:30.691Z,23.53
2019-06-07T21:01:00.778Z,19.87
2019-06-07T21:03:30.910Z,21.13
2019-06-07T21:06:01.420Z,23.83
2019-06-07T21:08:31.548Z,17.80
2019-06-07T21:11:01.687Z,19.17
2019-06-07T21:13:31.706Z,23.70
2019-06-07T21:16:02.006Z,18.27
2019-06-07T21:18:32.135Z,21.83
2019-06-07T21:21:02.388Z,16.43
2019-06-07T21:23:41.663Z,19.47
2019-06-07T21:26:13.226Z,21.07
2019-06-07T21:29:03.373Z,20.40
2019-06-07T21:31:33.907Z,23.33
2019-06-07T21:34:25.760Z,23.67
2019-06-07T21:36:55.834Z,17.73
2019-06-07T21:39:34.379Z,26.30
2019-06-07T21:42:04.576Z,20.97
2019-06-07T21:44:34.691Z,24.17
2019-06-07T21:47:04.788Z,22.70
2019-06-07T21:49:34.856Z,19.57
2019-06-07T21:52:06.397Z,24.40
2019-06-07T21:54:36.621Z,26.77
2019-06-07T21:57:06.957Z,31.27
2019-06-07T21:59:37.240Z,21.13
2019-06-07T22:02:11.723Z,21.23
2019-06-07T22:04:41.778Z,21.80
2019-06-07T22:07:11.905Z,20.67
2019-06-07T22:09:42.029Z,20.70
2019-06-07T22:12:22.953Z,23.30
2019-06-07T22:14:53.056Z,21.40
2019-06-07T22:17:36.554Z,28.67
2019-06-07T22:20:08.484Z,21.73
2019-06-07T22:22:38.954Z,20.90
2019-06-07T22:25:10.985Z,19.67
2019-06-07T22:27:41.489Z,20.00
2019-06-07T22:30:12.631Z,23.20
2019-06-07T22:32:42.825Z,23.67
2019-06-07T22:35:13.045Z,21.97
2019-06-07T22:37:43.110Z,24.53
2019-06-07T22:40:14.582Z,22.37
2019-06-07T22:42:44.868Z,32.10
2019-06-07T22:45:15.097Z,25.10
2019-06-07T22:47:45.188Z,23.67
2019-06-07T22:50:16.365Z,27.23
2019-06-07T22:52:46.418Z,28.70
2019-06-07T22:55:34.641Z,25.47
2019-06-07T22:58:04.711Z,20.90
2019-06-07T23:00:43.693Z,22.27
2019-06-07T23:05:41.332Z,20.07
2019-06-07T23:08:12.952Z,21.63
2019-06-07T23:10:43.134Z,38.93
2019-06-07T23:13:13.553Z,18.90
2019-06-07T23:15:43.934Z,19.20
2019-06-07T23:18:14.097Z,17.87
2019-06-07T23:20:44.171Z,16.47
2019-06-07T23:23:17.352Z,22.20
2019-06-07T23:25:47.372Z,20.27
2019-06-07T23:28:18.730Z,19.43
2019-06-07T23:30:49.044Z,17.30
2019-06-07T23:33:26.529Z,33.27
2019-06-07T23:35:56.600Z,16.73
2019-06-07T23:38:46.340Z,17.90
2019-06-07T23:41:17.639Z,17.63
2019-06-07T23:43:56.870Z,16.20
2019-06-07T23:46:46.304Z,19.47
2019-06-07T23:49:35.417Z,19.83
2019-06-07T23:52:05.566Z,20.17
2019-06-07T23:54:35.861Z,21.13
2019-06-07T23:57:06.764Z,15.87
2019-06-07T23:59:36.886Z,16.13
